sensor_id;sensor_type;location;lat;lon;timestamp;pressure;altitude;pressure_sealevel;temperature;humidity
6343;BME280;3204;42.698;23.298;2023-02-19T00:01:24;95195.50;;;8.08;56.94
6343;BME280;3204;42.698;23.298;2023-02-19T00:03:57;95193.69;;;8.03;57.06
6343;BME280;3204;42.698;23.298;2023-02-19T00:06:25;95196.84;;;8.10;57.85
6343;BME280;3204;42.698;23.298;2023-02-19T00:08:50;95195.28;;;8.04;57.50
6343;BME280;3204;42.698;23.298;2023-02-19T00:11:19;95182.66;;;8.00;57.53
6343;BME280;3204;42.698;23.298;2023-02-19T00:13:46;95173.84;;;7.89;58.04
6343;BME280;3204;42.698;23.298;2023-02-19T00:16:18;95170.78;;;7.72;58.37
6343;BME280;3204;42.698;23.298;2023-02-19T00:18:45;95186.13;;;7.77;58.42
6343;BME280;3204;42.698;23.298;2023-02-19T00:21:11;95175.06;;;7.78;58.59
6343;BME280;3204;42.698;23.298;2023-02-19T00:23:37;95186.66;;;7.79;59.01
6343;BME280;3204;42.698;23.298;2023-02-19T00:26:07;95171.38;;;7.93;58.13
6343;BME280;3204;42.698;23.298;2023-02-19T00:28:34;95179.03;;;7.86;58.30
6343;BME280;3204;42.698;23.298;2023-02-19T00:31:07;95172.63;;;7.77;59.15
6343;BME280;3204;42.698;23.298;2023-02-19T00:33:33;95159.97;;;8.01;58.61
6343;BME280;3204;42.698;23.298;2023-02-19T00:36:03;95168.78;;;7.83;58.97
6343;BME280;3204;42.698;23.298;2023-02-19T00:38:29;95159.25;;;7.67;59.30
6343;BME280;3204;42.698;23.298;2023-02-19T00:40:54;95163.72;;;7.53;59.96
6343;BME280;3204;42.698;23.298;2023-02-19T00:43:20;95157.25;;;7.49;60.85
6343;BME280;3204;42.698;23.298;2023-02-19T00:45:46;95154.50;;;7.54;59.82
6343;BME280;3204;42.698;23.298;2023-02-19T00:48:11;95151.75;;;7.59;60.02
6343;BME280;3204;42.698;23.298;2023-02-19T00:50:36;95148.25;;;7.58;60.41
6343;BME280;3204;42.698;23.298;2023-02-19T00:53:02;95126.91;;;7.62;59.81
6343;BME280;3204;42.698;23.298;2023-02-19T00:55:27;95137.06;;;7.46;60.33
6343;BME280;3204;42.698;23.298;2023-02-19T00:57:53;95143.09;;;7.62;60.39
6343;BME280;3204;42.698;23.298;2023-02-19T01:00:18;95135.56;;;7.59;60.38
6343;BME280;3204;42.698;23.298;2023-02-19T01:02:44;95133.03;;;7.67;60.60
6343;BME280;3204;42.698;23.298;2023-02-19T01:05:09;95144.72;;;7.63;60.32
6343;BME280;3204;42.698;23.298;2023-02-19T01:07:36;95148.56;;;7.57;60.55
6343;BME280;3204;42.698;23.298;2023-02-19T01:10:02;95148.28;;;7.53;61.07
6343;BME280;3204;42.698;23.298;2023-02-19T01:12:28;95158.03;;;7.54;60.30
6343;BME280;3204;42.698;23.298;2023-02-19T01:14:54;95150.66;;;7.60;60.29
6343;BME280;3204;42.698;23.298;2023-02-19T01:17:20;95141.09;;;7.72;60.27
6343;BME280;3204;42.698;23.298;2023-02-19T01:19:45;95148.03;;;7.55;60.78
6343;BME280;3204;42.698;23.298;2023-02-19T01:22:11;95130.16;;;7.59;61.15
6343;BME280;3204;42.698;23.298;2023-02-19T01:24:37;95139.94;;;7.55;60.72
6343;BME280;3204;42.698;23.298;2023-02-19T01:27:03;95141.22;;;7.34;61.60
6343;BME280;3204;42.698;23.298;2023-02-19T01:29:28;95148.69;;;7.42;60.86
6343;BME280;3204;42.698;23.298;2023-02-19T01:31:54;95153.63;;;7.35;61.30
6343;BME280;3204;42.698;23.298;2023-02-19T01:34:19;95152.31;;;7.56;60.00
6343;BME280;3204;42.698;23.298;2023-02-19T01:36:45;95151.81;;;7.54;59.18
6343;BME280;3204;42.698;23.298;2023-02-19T01:39:10;95159.72;;;7.45;59.41
6343;BME280;3204;42.698;23.298;2023-02-19T01:41:38;95162.56;;;7.59;59.71
6343;BME280;3204;42.698;23.298;2023-02-19T01:46:52;95179.13;;;7.76;58.84
6343;BME280;3204;42.698;23.298;2023-02-19T01:49:35;95190.81;;;7.66;59.38
6343;BME280;3204;42.698;23.298;2023-02-19T01:52:15;95189.78;;;7.62;59.05
6343;BME280;3204;42.698;23.298;2023-02-19T01:54:43;95190.44;;;7.49;59.87
6343;BME280;3204;42.698;23.298;2023-02-19T01:57:13;95188.03;;;7.48;59.39
6343;BME280;3204;42.698;23.298;2023-02-19T01:59:41;95177.09;;;7.63;59.63
6343;BME280;3204;42.698;23.298;2023-02-19T02:02:07;95167.13;;;7.58;59.89
6343;BME280;3204;42.698;23.298;2023-02-19T02:04:33;95189.69;;;7.44;60.13
6343;BME280;3204;42.698;23.298;2023-02-19T02:07:01;95186.72;;;7.45;59.81
6343;BME280;3204;42.698;23.298;2023-02-19T02:09:29;95183.28;;;7.35;60.77
6343;BME280;3204;42.698;23.298;2023-02-19T02:12:13;95184.06;;;7.40;60.46
6343;BME280;3204;42.698;23.298;2023-02-19T02:14:42;95185.69;;;7.65;59.91
6343;BME280;3204;42.698;23.298;2023-02-19T02:17:29;95177.25;;;7.48;59.66
6343;BME280;3204;42.698;23.298;2023-02-19T02:22:49;95175.44;;;7.38;60.55
6343;BME280;3204;42.698;23.298;2023-02-19T02:30:58;95190.53;;;7.39;60.86
6343;BME280;3204;42.698;23.298;2023-02-19T02:33:46;95183.94;;;7.22;61.13
6343;BME280;3204;42.698;23.298;2023-02-19T02:36:19;95187.47;;;7.17;61.35
6343;BME280;3204;42.698;23.298;2023-02-19T02:38:46;95190.22;;;7.12;61.50
6343;BME280;3204;42.698;23.298;2023-02-19T02:41:14;95180.75;;;7.15;61.32
6343;BME280;3204;42.698;23.298;2023-02-19T02:43:40;95194.44;;;7.23;61.47
6343;BME280;3204;42.698;23.298;2023-02-19T02:46:10;95198.50;;;7.21;61.08
6343;BME280;3204;42.698;23.298;2023-02-19T02:48:56;95188.84;;;7.15;61.57
6343;BME280;3204;42.698;23.298;2023-02-19T02:51:28;95193.88;;;7.26;61.70
6343;BME280;3204;42.698;23.298;2023-02-19T02:54:00;95196.88;;;7.25;61.70
6343;BME280;3204;42.698;23.298;2023-02-19T02:56:47;95192.88;;;7.17;61.50
6343;BME280;3204;42.698;23.298;2023-02-19T02:59:15;95185.56;;;7.18;61.02
6343;BME280;3204;42.698;23.298;2023-02-19T03:01:53;95193.75;;;7.08;61.96
6343;BME280;3204;42.698;23.298;2023-02-19T03:04:59;95189.16;;;7.08;61.59
6343;BME280;3204;42.698;23.298;2023-02-19T03:07:49;95199.69;;;7.10;62.49
6343;BME280;3204;42.698;23.298;2023-02-19T03:10:19;95201.28;;;7.11;61.67
6343;BME280;3204;42.698;23.298;2023-02-19T03:12:47;95197.28;;;7.03;62.03
6343;BME280;3204;42.698;23.298;2023-02-19T03:15:37;95192.44;;;7.00;62.13
6343;BME280;3204;42.698;23.298;2023-02-19T03:18:25;95192.50;;;6.95;62.63
6343;BME280;3204;42.698;23.298;2023-02-19T03:21:13;95192.72;;;6.99;62.01
6343;BME280;3204;42.698;23.298;2023-02-19T03:23:40;95196.19;;;7.04;62.11
6343;BME280;3204;42.698;23.298;2023-02-19T03:26:26;95209.13;;;7.07;61.78
6343;BME280;3204;42.698;23.298;2023-02-19T03:28:52;95215.94;;;7.00;61.81
6343;BME280;3204;42.698;23.298;2023-02-19T03:31:38;95215.41;;;6.93;62.28
6343;BME280;3204;42.698;23.298;2023-02-19T03:34:10;95222.41;;;6.94;61.90
6343;BME280;3204;42.698;23.298;2023-02-19T03:36:43;95227.63;;;6.80;62.70
6343;BME280;3204;42.698;23.298;2023-02-19T03:39:11;95229.03;;;6.73;63.00
6343;BME280;3204;42.698;23.298;2023-02-19T03:41:55;95233.09;;;6.65;63.80
6343;BME280;3204;42.698;23.298;2023-02-19T03:44:44;95236.03;;;6.74;63.36
6343;BME280;3204;42.698;23.298;2023-02-19T03:50:06;95229.06;;;6.68;63.50
6343;BME280;3204;42.698;23.298;2023-02-19T03:55:59;95242.72;;;6.81;62.90
6343;BME280;3204;42.698;23.298;2023-02-19T03:58:27;95243.25;;;6.83;62.76
6343;BME280;3204;42.698;23.298;2023-02-19T04:01:01;95237.59;;;6.80;62.65
6343;BME280;3204;42.698;23.298;2023-02-19T04:03:38;95247.31;;;6.81;62.82
6343;BME280;3204;42.698;23.298;2023-02-19T04:06:09;95244.88;;;6.84;62.64
6343;BME280;3204;42.698;23.298;2023-02-19T04:08:37;95246.13;;;6.97;61.90
6343;BME280;3204;42.698;23.298;2023-02-19T04:11:05;95239.63;;;7.03;61.80
6343;BME280;3204;42.698;23.298;2023-02-19T04:13:43;95240.91;;;7.10;61.94
6343;BME280;3204;42.698;23.298;2023-02-19T04:16:16;95242.78;;;7.15;61.54
6343;BME280;3204;42.698;23.298;2023-02-19T04:18:44;95247.84;;;7.26;61.31
6343;BME280;3204;42.698;23.298;2023-02-19T04:21:12;95248.84;;;7.35;60.41
6343;BME280;3204;42.698;23.298;2023-02-19T04:23:42;95250.03;;;7.58;60.05
6343;BME280;3204;42.698;23.298;2023-02-19T04:26:10;95250.53;;;7.60;60.45
6343;BME280;3204;42.698;23.298;2023-02-19T04:28:37;95255.19;;;7.54;60.25
6343;BME280;3204;42.698;23.298;2023-02-19T04:31:03;95251.63;;;7.59;60.22
6343;BME280;3204;42.698;23.298;2023-02-19T04:33:33;95258.00;;;7.73;60.30
6343;BME280;3204;42.698;23.298;2023-02-19T04:35:58;95253.03;;;7.80;60.00
6343;BME280;3204;42.698;23.298;2023-02-19T04:38:24;95262.69;;;7.91;59.20
6343;BME280;3204;42.698;23.298;2023-02-19T04:40:50;95261.25;;;7.98;59.41
6343;BME280;3204;42.698;23.298;2023-02-19T04:43:16;95258.28;;;8.00;59.57
6343;BME280;3204;42.698;23.298;2023-02-19T04:45:41;95254.22;;;8.02;59.17
6343;BME280;3204;42.698;23.298;2023-02-19T04:48:07;95261.88;;;8.19;58.77
6343;BME280;3204;42.698;23.298;2023-02-19T04:50:33;95251.91;;;8.14;59.29
6343;BME280;3204;42.698;23.298;2023-02-19T04:52:58;95259.97;;;8.19;59.17
6343;BME280;3204;42.698;23.298;2023-02-19T04:55:24;95271.00;;;8.28;59.08
6343;BME280;3204;42.698;23.298;2023-02-19T04:57:49;95258.44;;;8.37;58.26
6343;BME280;3204;42.698;23.298;2023-02-19T05:00:14;95259.03;;;8.34;58.94
6343;BME280;3204;42.698;23.298;2023-02-19T05:02:40;95261.69;;;8.39;58.55
6343;BME280;3204;42.698;23.298;2023-02-19T05:05:06;95262.06;;;8.51;57.10
6343;BME280;3204;42.698;23.298;2023-02-19T05:07:32;95249.50;;;8.41;56.91
6343;BME280;3204;42.698;23.298;2023-02-19T05:09:57;95257.03;;;8.44;56.87
6343;BME280;3204;42.698;23.298;2023-02-19T05:12:24;95266.41;;;8.52;56.80
6343;BME280;3204;42.698;23.298;2023-02-19T05:14:50;95259.22;;;8.66;55.04
6343;BME280;3204;42.698;23.298;2023-02-19T05:17:15;95267.47;;;8.74;55.45
6343;BME280;3204;42.698;23.298;2023-02-19T05:19:41;95276.44;;;8.70;54.77
6343;BME280;3204;42.698;23.298;2023-02-19T05:22:06;95273.03;;;8.83;54.55
6343;BME280;3204;42.698;23.298;2023-02-19T05:24:32;95276.03;;;8.81;54.42
6343;BME280;3204;42.698;23.298;2023-02-19T05:26:57;95265.59;;;8.93;54.00
6343;BME280;3204;42.698;23.298;2023-02-19T05:29:23;95275.69;;;8.88;53.68
6343;BME280;3204;42.698;23.298;2023-02-19T05:31:48;95276.94;;;8.95;53.72
6343;BME280;3204;42.698;23.298;2023-02-19T05:34:13;95274.91;;;8.87;53.82
6343;BME280;3204;42.698;23.298;2023-02-19T05:36:39;95278.38;;;8.88;54.10
6343;BME280;3204;42.698;23.298;2023-02-19T05:39:05;95288.84;;;8.94;53.93
6343;BME280;3204;42.698;23.298;2023-02-19T05:41:31;95282.19;;;8.87;54.35
6343;BME280;3204;42.698;23.298;2023-02-19T05:43:57;95284.41;;;8.85;54.28
6343;BME280;3204;42.698;23.298;2023-02-19T05:46:26;95281.84;;;8.93;54.95
6343;BME280;3204;42.698;23.298;2023-02-19T05:48:52;95291.84;;;8.93;54.43
6343;BME280;3204;42.698;23.298;2023-02-19T05:51:22;95287.41;;;9.02;54.55
6343;BME280;3204;42.698;23.298;2023-02-19T05:53:48;95290.31;;;8.87;55.21
6343;BME280;3204;42.698;23.298;2023-02-19T05:56:36;95297.94;;;9.03;55.50
6343;BME280;3204;42.698;23.298;2023-02-19T05:59:06;95306.69;;;8.95;54.86
6343;BME280;3204;42.698;23.298;2023-02-19T06:01:32;95306.13;;;8.98;55.35
6343;BME280;3204;42.698;23.298;2023-02-19T06:03:58;95318.44;;;8.86;54.96
6343;BME280;3204;42.698;23.298;2023-02-19T06:06:24;95317.00;;;8.93;55.52
6343;BME280;3204;42.698;23.298;2023-02-19T06:08:51;95315.41;;;8.92;55.76
6343;BME280;3204;42.698;23.298;2023-02-19T06:11:17;95335.94;;;8.93;55.41
6343;BME280;3204;42.698;23.298;2023-02-19T06:13:43;95330.31;;;8.90;56.26
6343;BME280;3204;42.698;23.298;2023-02-19T06:16:09;95336.78;;;8.89;55.64
6343;BME280;3204;42.698;23.298;2023-02-19T06:18:35;95340.81;;;8.91;56.64
6343;BME280;3204;42.698;23.298;2023-02-19T06:21:01;95332.22;;;9.08;55.69
6343;BME280;3204;42.698;23.298;2023-02-19T06:23:28;95338.38;;;9.13;55.14
6343;BME280;3204;42.698;23.298;2023-02-19T06:25:54;95343.38;;;9.06;54.80
6343;BME280;3204;42.698;23.298;2023-02-19T06:28:19;95342.59;;;9.01;55.86
6343;BME280;3204;42.698;23.298;2023-02-19T06:30:44;95338.59;;;9.17;55.28
6343;BME280;3204;42.698;23.298;2023-02-19T06:33:10;95347.75;;;9.21;55.00
6343;BME280;3204;42.698;23.298;2023-02-19T06:35:35;95335.25;;;9.25;55.46
6343;BME280;3204;42.698;23.298;2023-02-19T06:38:01;95344.78;;;9.22;55.14
6343;BME280;3204;42.698;23.298;2023-02-19T06:40:27;95341.09;;;9.32;55.90
6343;BME280;3204;42.698;23.298;2023-02-19T06:42:53;95334.19;;;9.44;54.74
6343;BME280;3204;42.698;23.298;2023-02-19T06:45:18;95336.72;;;9.36;55.26
6343;BME280;3204;42.698;23.298;2023-02-19T06:47:43;95351.38;;;9.35;55.41
6343;BME280;3204;42.698;23.298;2023-02-19T06:50:09;95352.63;;;9.42;54.15
6343;BME280;3204;42.698;23.298;2023-02-19T06:52:34;95347.31;;;9.56;53.37
6343;BME280;3204;42.698;23.298;2023-02-19T06:55:00;95351.97;;;9.50;54.22
6343;BME280;3204;42.698;23.298;2023-02-19T06:57:25;95352.13;;;9.59;52.98
6343;BME280;3204;42.698;23.298;2023-02-19T06:59:50;95354.53;;;9.60;53.57
6343;BME280;3204;42.698;23.298;2023-02-19T07:02:16;95360.53;;;9.57;53.72
6343;BME280;3204;42.698;23.298;2023-02-19T07:04:41;95368.56;;;9.62;54.41
6343;BME280;3204;42.698;23.298;2023-02-19T07:07:09;95366.38;;;9.83;53.66
6343;BME280;3204;42.698;23.298;2023-02-19T07:09:36;95359.88;;;9.84;53.76
6343;BME280;3204;42.698;23.298;2023-02-19T07:12:01;95357.59;;;10.09;52.75
6343;BME280;3204;42.698;23.298;2023-02-19T07:14:27;95356.28;;;10.25;52.91
6343;BME280;3204;42.698;23.298;2023-02-19T07:16:54;95366.78;;;10.59;51.43
6343;BME280;3204;42.698;23.298;2023-02-19T07:19:19;95351.16;;;11.10;51.22
6343;BME280;3204;42.698;23.298;2023-02-19T07:21:44;95349.34;;;11.46;50.68
6343;BME280;3204;42.698;23.298;2023-02-19T07:24:10;95353.06;;;11.99;49.06
6343;BME280;3204;42.698;23.298;2023-02-19T07:26:36;95340.81;;;12.10;48.77
6343;BME280;3204;42.698;23.298;2023-02-19T07:29:01;95343.66;;;12.49;48.31
6343;BME280;3204;42.698;23.298;2023-02-19T07:31:27;95339.50;;;12.82;47.10
6343;BME280;3204;42.698;23.298;2023-02-19T07:33:53;95332.25;;;13.47;45.25
6343;BME280;3204;42.698;23.298;2023-02-19T07:36:20;95330.06;;;13.10;46.00
6343;BME280;3204;42.698;23.298;2023-02-19T07:38:46;95334.19;;;12.99;46.31
6343;BME280;3204;42.698;23.298;2023-02-19T07:41:11;95330.13;;;13.18;46.30
6343;BME280;3204;42.698;23.298;2023-02-19T07:43:38;95326.81;;;13.55;45.36
6343;BME280;3204;42.698;23.298;2023-02-19T07:46:08;95331.53;;;13.89;45.41
6343;BME280;3204;42.698;23.298;2023-02-19T07:48:35;95332.03;;;14.25;43.56
6343;BME280;3204;42.698;23.298;2023-02-19T07:51:02;95320.28;;;14.50;43.79
6343;BME280;3204;42.698;23.298;2023-02-19T07:53:28;95319.13;;;14.68;43.13
6343;BME280;3204;42.698;23.298;2023-02-19T07:55:58;95330.66;;;15.36;42.34
6343;BME280;3204;42.698;23.298;2023-02-19T07:58:23;95329.59;;;15.12;42.04
6343;BME280;3204;42.698;23.298;2023-02-19T08:00:49;95332.13;;;15.54;42.23
6343;BME280;3204;42.698;23.298;2023-02-19T08:03:14;95326.06;;;16.39;41.21
6343;BME280;3204;42.698;23.298;2023-02-19T08:05:41;95326.34;;;16.47;40.34
6343;BME280;3204;42.698;23.298;2023-02-19T08:08:13;95326.63;;;17.10;39.03
6343;BME280;3204;42.698;23.298;2023-02-19T08:10:39;95329.00;;;17.00;39.13
6343;BME280;3204;42.698;23.298;2023-02-19T08:13:25;95330.34;;;17.74;37.91
6343;BME280;3204;42.698;23.298;2023-02-19T08:15:54;95324.03;;;16.81;38.51
6343;BME280;3204;42.698;23.298;2023-02-19T08:18:24;95321.97;;;16.45;39.13
6343;BME280;3204;42.698;23.298;2023-02-19T08:20:50;95326.41;;;15.97;40.06
6343;BME280;3204;42.698;23.298;2023-02-19T08:23:16;95317.31;;;15.84;46.78
6343;BME280;3204;42.698;23.298;2023-02-19T08:25:42;95323.38;;;16.84;42.19
6343;BME280;3204;42.698;23.298;2023-02-19T08:28:09;95318.34;;;17.43;41.44
6343;BME280;3204;42.698;23.298;2023-02-19T08:30:36;95311.22;;;17.90;37.70
6343;BME280;3204;42.698;23.298;2023-02-19T08:33:06;95319.38;;;18.26;37.35
6343;BME280;3204;42.698;23.298;2023-02-19T08:35:33;95317.69;;;18.61;37.65
6343;BME280;3204;42.698;23.298;2023-02-19T08:38:00;95320.97;;;18.94;35.97
6343;BME280;3204;42.698;23.298;2023-02-19T08:40:26;95319.06;;;18.82;36.80
6343;BME280;3204;42.698;23.298;2023-02-19T08:42:52;95318.75;;;19.15;34.92
6343;BME280;3204;42.698;23.298;2023-02-19T08:45:18;95309.03;;;19.48;34.76
6343;BME280;3204;42.698;23.298;2023-02-19T08:47:44;95308.91;;;19.91;34.17
6343;BME280;3204;42.698;23.298;2023-02-19T08:50:10;95309.56;;;20.04;34.23
6343;BME280;3204;42.698;23.298;2023-02-19T08:52:35;95304.06;;;20.19;34.15
6343;BME280;3204;42.698;23.298;2023-02-19T08:55:02;95302.25;;;20.65;33.65
6343;BME280;3204;42.698;23.298;2023-02-19T08:57:28;95296.16;;;20.56;33.06
6343;BME280;3204;42.698;23.298;2023-02-19T08:59:57;95290.56;;;20.14;33.81
6343;BME280;3204;42.698;23.298;2023-02-19T09:02:23;95293.03;;;19.54;34.54
6343;BME280;3204;42.698;23.298;2023-02-19T09:04:49;95288.91;;;20.29;34.04
6343;BME280;3204;42.698;23.298;2023-02-19T09:07:15;95293.59;;;20.85;32.90
6343;BME280;3204;42.698;23.298;2023-02-19T09:09:41;95286.19;;;21.31;32.59
6343;BME280;3204;42.698;23.298;2023-02-19T09:12:08;95281.97;;;21.14;32.92
6343;BME280;3204;42.698;23.298;2023-02-19T09:14:34;95278.28;;;21.07;32.91
6343;BME280;3204;42.698;23.298;2023-02-19T09:17:00;95273.88;;;21.25;32.67
6343;BME280;3204;42.698;23.298;2023-02-19T09:19:26;95270.22;;;20.98;33.04
6343;BME280;3204;42.698;23.298;2023-02-19T09:21:53;95273.97;;;21.32;32.92
6343;BME280;3204;42.698;23.298;2023-02-19T09:24:18;95280.56;;;21.46;32.37
6343;BME280;3204;42.698;23.298;2023-02-19T09:26:44;95274.56;;;21.67;32.32
6343;BME280;3204;42.698;23.298;2023-02-19T09:29:09;95268.19;;;21.85;32.31
6343;BME280;3204;42.698;23.298;2023-02-19T09:31:34;95269.72;;;22.12;32.16
6343;BME280;3204;42.698;23.298;2023-02-19T09:34:00;95270.75;;;22.27;31.32
6343;BME280;3204;42.698;23.298;2023-02-19T09:36:26;95260.19;;;22.06;31.46
6343;BME280;3204;42.698;23.298;2023-02-19T09:38:52;95266.06;;;22.05;31.84
6343;BME280;3204;42.698;23.298;2023-02-19T09:41:25;95257.00;;;22.04;31.77
6343;BME280;3204;42.698;23.298;2023-02-19T09:43:53;95262.72;;;22.18;31.73
6343;BME280;3204;42.698;23.298;2023-02-19T09:46:46;95255.31;;;21.96;31.82
6343;BME280;3204;42.698;23.298;2023-02-19T09:49:18;95254.09;;;21.68;32.23
6343;BME280;3204;42.698;23.298;2023-02-19T09:51:55;95256.06;;;20.81;33.01
6343;BME280;3204;42.698;23.298;2023-02-19T09:54:27;95256.09;;;20.62;33.36
6343;BME280;3204;42.698;23.298;2023-02-19T09:56:55;95250.38;;;20.70;33.38
6343;BME280;3204;42.698;23.298;2023-02-19T09:59:23;95238.34;;;20.40;33.50
6343;BME280;3204;42.698;23.298;2023-02-19T10:01:58;95227.66;;;20.58;33.24
6343;BME280;3204;42.698;23.298;2023-02-19T10:04:27;95223.22;;;20.50;33.28
6343;BME280;3204;42.698;23.298;2023-02-19T10:06:53;95216.91;;;20.72;32.78
6343;BME280;3204;42.698;23.298;2023-02-19T10:09:24;95208.94;;;20.67;32.78
6343;BME280;3204;42.698;23.298;2023-02-19T10:11:53;95211.22;;;19.51;33.47
6343;BME280;3204;42.698;23.298;2023-02-19T10:14:31;95194.72;;;19.51;33.52
6343;BME280;3204;42.698;23.298;2023-02-19T10:17:03;95191.97;;;19.35;33.92
6343;BME280;3204;42.698;23.298;2023-02-19T10:19:30;95188.16;;;18.47;34.83
6343;BME280;3204;42.698;23.298;2023-02-19T10:21:56;95178.97;;;18.55;35.09
6343;BME280;3204;42.698;23.298;2023-02-19T10:24:27;95168.78;;;18.71;34.66
6343;BME280;3204;42.698;23.298;2023-02-19T10:26:53;95174.34;;;18.74;34.79
6343;BME280;3204;42.698;23.298;2023-02-19T10:29:19;95178.75;;;17.77;35.90
6343;BME280;3204;42.698;23.298;2023-02-19T10:31:46;95163.44;;;17.76;35.85
6343;BME280;3204;42.698;23.298;2023-02-19T10:34:20;95157.13;;;17.24;36.79
6343;BME280;3204;42.698;23.298;2023-02-19T10:36:48;95158.25;;;17.35;36.56
6343;BME280;3204;42.698;23.298;2023-02-19T10:41:47;95132.88;;;17.38;36.85
6343;BME280;3204;42.698;23.298;2023-02-19T10:44:19;95133.72;;;17.15;36.98
6343;BME280;3204;42.698;23.298;2023-02-19T10:46:50;95118.56;;;16.93;37.28
6343;BME280;3204;42.698;23.298;2023-02-19T10:49:31;95115.00;;;16.92;37.60
6343;BME280;3204;42.698;23.298;2023-02-19T10:52:13;95115.38;;;16.79;37.68
6343;BME280;3204;42.698;23.298;2023-02-19T10:54:42;95106.94;;;16.60;38.09
6343;BME280;3204;42.698;23.298;2023-02-19T10:57:26;95109.22;;;16.58;38.21
6343;BME280;3204;42.698;23.298;2023-02-19T11:00:26;95095.63;;;16.73;38.10
6343;BME280;3204;42.698;23.298;2023-02-19T11:03:17;95099.16;;;16.74;37.96
6343;BME280;3204;42.698;23.298;2023-02-19T11:05:59;95088.41;;;16.81;37.73
6343;BME280;3204;42.698;23.298;2023-02-19T11:08:26;95078.84;;;16.87;37.64
6343;BME280;3204;42.698;23.298;2023-02-19T11:10:53;95076.09;;;16.87;37.71
6343;BME280;3204;42.698;23.298;2023-02-19T11:13:30;95070.72;;;16.91;37.64
6343;BME280;3204;42.698;23.298;2023-02-19T11:15:57;95061.25;;;16.88;37.66
6343;BME280;3204;42.698;23.298;2023-02-19T11:18:26;95061.94;;;16.85;37.92
6343;BME280;3204;42.698;23.298;2023-02-19T11:21:26;95064.00;;;16.88;37.95
6343;BME280;3204;42.698;23.298;2023-02-19T11:23:57;95047.06;;;16.98;37.28
6343;BME280;3204;42.698;23.298;2023-02-19T11:26:25;95042.41;;;16.99;37.55
6343;BME280;3204;42.698;23.298;2023-02-19T11:28:56;95037.88;;;17.18;37.32
6343;BME280;3204;42.698;23.298;2023-02-19T11:36:35;95024.13;;;17.58;36.35
6343;BME280;3204;42.698;23.298;2023-02-19T11:39:21;95016.25;;;17.56;36.39
6343;BME280;3204;42.698;23.298;2023-02-19T11:52:46;95003.22;;;17.96;35.31
6343;BME280;3204;42.698;23.298;2023-02-19T11:55:31;94996.16;;;17.95;34.77
6343;BME280;3204;42.698;23.298;2023-02-19T11:58:16;94996.50;;;17.94;34.80
6343;BME280;3204;42.698;23.298;2023-02-19T12:00:57;94989.41;;;17.93;34.81
6343;BME280;3204;42.698;23.298;2023-02-19T12:14:38;94970.09;;;18.20;34.01
6343;BME280;3204;42.698;23.298;2023-02-19T12:17:24;94966.19;;;18.21;34.13
6343;BME280;3204;42.698;23.298;2023-02-19T12:22:28;94948.22;;;18.39;33.62
6343;BME280;3204;42.698;23.298;2023-02-19T12:31:05;94941.13;;;18.92;32.48
6343;BME280;3204;42.698;23.298;2023-02-19T12:34:20;94940.03;;;18.96;32.44
6343;BME280;3204;42.698;23.298;2023-02-19T12:36:40;94921.53;;;18.93;32.42
6343;BME280;3204;42.698;23.298;2023-02-19T12:39:59;94916.94;;;19.01;32.59
6343;BME280;3204;42.698;23.298;2023-02-19T12:45:16;94899.09;;;19.29;31.78
6343;BME280;3204;42.698;23.298;2023-02-19T12:47:53;94901.84;;;19.29;32.09
6343;BME280;3204;42.698;23.298;2023-02-19T12:50:23;94893.81;;;19.40;31.96
6343;BME280;3204;42.698;23.298;2023-02-19T12:53:00;94891.09;;;19.43;31.72
6343;BME280;3204;42.698;23.298;2023-02-19T12:55:41;94886.56;;;19.54;31.73
6343;BME280;3204;42.698;23.298;2023-02-19T12:58:24;94876.84;;;19.60;31.57
6343;BME280;3204;42.698;23.298;2023-02-19T13:00:54;94868.09;;;19.77;31.28
6343;BME280;3204;42.698;23.298;2023-02-19T13:03:32;94860.94;;;19.95;30.98
6343;BME280;3204;42.698;23.298;2023-02-19T13:09:01;94850.13;;;20.35;30.16
6343;BME280;3204;42.698;23.298;2023-02-19T13:11:35;94857.34;;;20.43;30.59
6343;BME280;3204;42.698;23.298;2023-02-19T13:19:59;94847.16;;;21.10;29.48
6343;BME280;3204;42.698;23.298;2023-02-19T13:22:41;94840.38;;;21.37;29.28
6343;BME280;3204;42.698;23.298;2023-02-19T13:37:07;94811.00;;;22.73;27.47
6343;BME280;3204;42.698;23.298;2023-02-19T13:39:33;94812.28;;;23.00;27.51
6343;BME280;3204;42.698;23.298;2023-02-19T13:41:59;94821.09;;;23.23;27.19
6343;BME280;3204;42.698;23.298;2023-02-19T13:44:28;94814.00;;;23.47;27.12
6343;BME280;3204;42.698;23.298;2023-02-19T13:46:54;94804.53;;;23.69;26.91
6343;BME280;3204;42.698;23.298;2023-02-19T13:51:58;94800.63;;;23.91;26.02
6343;BME280;3204;42.698;23.298;2023-02-19T13:54:26;94805.31;;;23.48;26.69
6343;BME280;3204;42.698;23.298;2023-02-19T13:59:42;94801.56;;;22.81;27.35
6343;BME280;3204;42.698;23.298;2023-02-19T14:02:30;94804.47;;;22.34;27.53
6343;BME280;3204;42.698;23.298;2023-02-19T14:05:23;94795.63;;;22.08;27.98
6343;BME280;3204;42.698;23.298;2023-02-19T14:07:52;94786.31;;;21.76;28.40
6343;BME280;3204;42.698;23.298;2023-02-19T14:10:49;94788.91;;;21.58;28.85
6343;BME280;3204;42.698;23.298;2023-02-19T14:19:03;94785.22;;;21.00;29.86
6343;BME280;3204;42.698;23.298;2023-02-19T14:21:38;94774.66;;;21.09;29.71
6343;BME280;3204;42.698;23.298;2023-02-19T14:24:08;94773.09;;;21.08;29.99
6343;BME280;3204;42.698;23.298;2023-02-19T14:26:35;94772.75;;;21.17;30.15
6343;BME280;3204;42.698;23.298;2023-02-19T14:29:01;94765.47;;;21.38;29.70
6343;BME280;3204;42.698;23.298;2023-02-19T14:31:30;94767.00;;;21.32;29.91
6343;BME280;3204;42.698;23.298;2023-02-19T14:34:02;94760.69;;;21.35;29.75
6343;BME280;3204;42.698;23.298;2023-02-19T14:39:09;94767.28;;;21.20;29.80
6343;BME280;3204;42.698;23.298;2023-02-19T14:41:37;94764.16;;;21.25;29.29
6343;BME280;3204;42.698;23.298;2023-02-19T14:44:11;94751.69;;;20.98;29.60
6343;BME280;3204;42.698;23.298;2023-02-19T14:46:43;94752.31;;;20.85;29.80
6343;BME280;3204;42.698;23.298;2023-02-19T14:49:18;94743.84;;;20.67;30.31
6343;BME280;3204;42.698;23.298;2023-02-19T14:51:49;94740.53;;;20.51;30.70
6343;BME280;3204;42.698;23.298;2023-02-19T14:54:32;94743.22;;;20.48;30.96
6343;BME280;3204;42.698;23.298;2023-02-19T14:57:00;94732.88;;;20.38;30.84
6343;BME280;3204;42.698;23.298;2023-02-19T14:59:29;94730.13;;;20.38;30.83
6343;BME280;3204;42.698;23.298;2023-02-19T15:01:58;94738.34;;;20.34;30.79
6343;BME280;3204;42.698;23.298;2023-02-19T15:04:33;94736.31;;;20.31;30.73
6343;BME280;3204;42.698;23.298;2023-02-19T15:07:01;94737.75;;;20.18;31.00